createdAt,value
2022-10-22T00:00:15.923Z,9.639
2022-10-22T00:01:15.955Z,9.615
2022-10-22T00:02:15.991Z,9.63
2022-10-22T00:03:16.020Z,9.645
2022-10-22T00:04:16.047Z,9.645
2022-10-22T00:05:16.069Z,9.641
2022-10-22T00:06:16.107Z,9.641
2022-10-22T00:07:16.142Z,9.572
2022-10-22T00:08:16.172Z,9.538
2022-10-22T00:09:16.285Z,9.523
2022-10-22T00:10:16.237Z,9.489
2022-10-22T00:11:16.270Z,9.474
2022-10-22T00:12:16.301Z,9.445
2022-10-22T00:13:16.340Z,9.416
2022-10-22T00:14:16.371Z,9.401
2022-10-22T00:15:16.408Z,9.401
2022-10-22T00:16:16.444Z,9.382
2022-10-22T00:17:16.479Z,9.382
2022-10-22T00:18:16.509Z,9.392
2022-10-22T00:19:16.547Z,9.437
2022-10-22T00:20:16.579Z,9.497
2022-10-22T00:21:16.630Z,9.512
2022-10-22T00:22:16.664Z,9.527
2022-10-22T00:23:16.691Z,9.523
2022-10-22T00:24:16.730Z,9.537
2022-10-22T00:25:16.773Z,9.49
2022-10-22T00:26:16.817Z,9.505
2022-10-22T00:27:16.849Z,9.49
2022-10-22T00:28:16.879Z,9.49
2022-10-22T00:29:16.913Z,9.471
2022-10-22T00:30:16.955Z,9.413
2022-10-22T00:31:16.993Z,9.413
2022-10-22T00:32:17.035Z,9.428
2022-10-22T00:33:17.069Z,9.428
2022-10-22T00:34:17.102Z,9.423
2022-10-22T00:35:17.145Z,9.438
2022-10-22T00:36:17.179Z,9.399
2022-10-22T00:37:17.214Z,9.37
2022-10-22T00:38:17.245Z,9.385
2022-10-22T00:39:17.287Z,9.365
2022-10-22T00:40:17.314Z,9.365
2022-10-22T00:41:17.352Z,9.365
2022-10-22T00:42:17.386Z,9.365
2022-10-22T00:43:17.424Z,9.351
2022-10-22T00:44:17.460Z,9.293
2022-10-22T00:45:17.489Z,9.307
2022-10-22T00:46:17.518Z,9.307
2022-10-22T00:47:17.553Z,9.23
2022-10-22T00:48:17.597Z,9.168
2022-10-22T00:49:17.619Z,9.153
2022-10-22T00:50:17.649Z,9.124
2022-10-22T00:51:17.689Z,9.139
2022-10-22T00:52:17.737Z,9.153
2022-10-22T00:53:17.773Z,9.183
2022-10-22T00:54:17.812Z,9.251
2022-10-22T00:55:17.879Z,9.246
2022-10-22T00:56:17.885Z,9.261
2022-10-22T00:57:17.922Z,9.261
2022-10-22T00:58:17.949Z,9.29
2022-10-22T00:59:17.995Z,9.29
2022-10-22T01:00:18.029Z,9.29
2022-10-22T01:01:18.162Z,9.275
2022-10-22T01:02:18.099Z,9.261
2022-10-22T01:03:18.139Z,9.217
2022-10-22T01:04:18.174Z,9.227
2022-10-22T01:05:18.225Z,9.256
2022-10-22T01:06:18.259Z,9.285
2022-10-22T01:07:18.299Z,9.343
2022-10-22T01:08:18.334Z,9.387
2022-10-22T01:09:18.360Z,9.401
2022-10-22T01:10:18.393Z,9.43
2022-10-22T01:11:18.421Z,9.473
2022-10-22T01:12:18.448Z,9.502
2022-10-22T01:13:18.499Z,9.53
2022-10-22T01:14:18.512Z,9.544
2022-10-22T01:15:18.540Z,9.573
2022-10-22T01:16:18.577Z,9.587
2022-10-22T01:17:18.640Z,9.602
2022-10-22T01:18:18.654Z,9.63
2022-10-22T01:19:18.677Z,9.644
2022-10-22T01:20:18.715Z,9.687
2022-10-22T01:21:18.750Z,9.707
2022-10-22T01:22:18.802Z,9.707
2022-10-22T01:23:18.825Z,9.679
2022-10-22T01:24:18.862Z,9.65
2022-10-22T01:25:18.897Z,9.664
2022-10-22T01:26:18.972Z,9.65
2022-10-22T01:27:18.981Z,9.636
2022-10-22T01:28:19.019Z,9.636
2022-10-22T01:29:19.058Z,9.607
2022-10-22T01:30:19.109Z,9.579
2022-10-22T01:31:19.136Z,9.564
2022-10-22T01:32:19.170Z,9.536
2022-10-22T01:33:19.217Z,9.536
2022-10-22T01:34:19.263Z,9.502
2022-10-22T01:35:19.288Z,9.463
2022-10-22T01:36:19.314Z,9.473
2022-10-22T01:37:19.355Z,9.487
2022-10-22T01:38:19.401Z,9.521
2022-10-22T01:39:19.433Z,9.535
2022-10-22T01:40:19.461Z,9.487
2022-10-22T01:41:19.505Z,9.459
2022-10-22T01:42:19.547Z,9.444
2022-10-22T01:43:19.579Z,9.459
2022-10-22T01:44:19.608Z,9.459
2022-10-22T01:45:19.643Z,9.459
2022-10-22T01:46:19.682Z,9.459
2022-10-22T01:47:19.728Z,9.459
2022-10-22T01:48:19.754Z,9.473
2022-10-22T01:49:19.787Z,9.487
2022-10-22T01:50:19.825Z,9.502
2022-10-22T01:51:19.872Z,9.544
2022-10-22T01:52:19.901Z,9.559
2022-10-22T01:53:19.935Z,9.573
2022-10-22T01:54:19.975Z,9.573
2022-10-22T01:55:20.027Z,9.573
2022-10-22T01:56:20.047Z,9.544
2022-10-22T01:57:20.077Z,9.525
2022-10-22T01:58:20.118Z,9.496
2022-10-22T01:59:20.161Z,9.467
2022-10-22T02:00:20.194Z,9.41
2022-10-22T02:01:20.225Z,9.396
2022-10-22T02:02:20.263Z,9.381
2022-10-22T02:03:22.933Z,9.367
2022-10-22T02:04:20.351Z,9.353
2022-10-22T02:05:20.380Z,9.353
2022-10-22T02:06:20.415Z,9.362
2022-10-22T02:07:20.471Z,9.376
2022-10-22T02:08:20.509Z,9.405
2022-10-22T02:09:20.537Z,9.419
2022-10-22T02:10:20.567Z,9.386
2022-10-22T02:11:20.605Z,9.4
2022-10-22T02:12:20.648Z,9.386
2022-10-22T02:13:20.676Z,9.357
2022-10-22T02:14:20.715Z,9.328
2022-10-22T02:15:20.762Z,9.285
2022-10-22T02:16:20.806Z,9.271
2022-10-22T02:17:20.841Z,9.242
2022-10-22T02:18:20.870Z,9.228
2022-10-22T02:19:20.913Z,9.213
2022-10-22T02:20:20.963Z,9.199
2022-10-22T02:21:20.983Z,9.228
2022-10-22T02:22:21.014Z,9.257
2022-10-22T02:23:21.057Z,9.271
2022-10-22T02:24:21.100Z,9.266
2022-10-22T02:25:21.131Z,9.208
2022-10-22T02:26:21.160Z,9.223
2022-10-22T02:27:25.829Z,9.208
2022-10-22T02:28:21.245Z,9.208
2022-10-22T02:29:21.284Z,9.208
2022-10-22T02:30:21.314Z,9.175
2022-10-22T02:31:21.342Z,9.146
2022-10-22T02:32:21.380Z,9.098
2022-10-22T02:33:21.413Z,9.117
2022-10-22T02:34:21.446Z,9.131
2022-10-22T02:35:21.471Z,9.131
2022-10-22T02:36:21.508Z,9.131
2022-10-22T02:37:21.568Z,9.146
2022-10-22T02:38:21.580Z,9.146
2022-10-22T02:39:21.614Z,9.16
2022-10-22T02:40:21.644Z,9.16
2022-10-22T02:41:21.674Z,9.146
2022-10-22T02:42:21.700Z,9.131
2022-10-22T02:43:21.728Z,9.103
2022-10-22T02:44:21.769Z,9.074
2022-10-22T02:45:21.801Z,9.074
2022-10-22T02:46:21.835Z,9.074
2022-10-22T02:47:21.866Z,9.074
2022-10-22T02:48:21.905Z,9.088
2022-10-22T02:49:21.934Z,9.088
2022-10-22T02:50:21.968Z,9.117
2022-10-22T02:51:22.120Z,9.16
2022-10-22T02:52:22.037Z,9.189
2022-10-22T02:53:22.076Z,9.189
2022-10-22T02:54:22.123Z,9.203
2022-10-22T02:55:22.137Z,9.189
2022-10-22T02:56:22.163Z,9.189
2022-10-22T02:57:22.244Z,9.175
2022-10-22T02:58:22.231Z,9.131
2022-10-22T02:59:22.267Z,9.103
2022-10-22T03:00:22.337Z,9.088
2022-10-22T03:01:22.445Z,9.074
2022-10-22T03:02:22.358Z,9.059
2022-10-22T03:03:22.388Z,9.059
2022-10-22T03:04:22.421Z,9.088
2022-10-22T03:05:22.459Z,9.103
2022-10-22T03:06:22.570Z,9.131
2022-10-22T03:07:22.533Z,9.131
2022-10-22T03:08:22.559Z,9.131
2022-10-22T03:09:24.743Z,9.146
2022-10-22T03:10:22.637Z,9.131
2022-10-22T03:11:22.669Z,9.16
2022-10-22T03:12:22.702Z,9.16
2022-10-22T03:13:22.756Z,9.174
2022-10-22T03:14:22.779Z,9.189
2022-10-22T03:15:22.854Z,9.189
2022-10-22T03:16:22.839Z,9.189
2022-10-22T03:17:22.877Z,9.189
2022-10-22T03:18:22.909Z,9.189
2022-10-22T03:19:22.942Z,9.218
2022-10-22T03:20:22.978Z,9.189
2022-10-22T03:21:23.012Z,9.174
2022-10-22T03:22:23.043Z,9.16
2022-10-22T03:23:23.084Z,9.102
2022-10-22T03:24:23.102Z,9.054
2022-10-22T03:25:23.143Z,9.026
2022-10-22T03:26:23.178Z,8.997
2022-10-22T03:27:23.217Z,9.016
2022-10-22T03:28:23.259Z,9.03
2022-10-22T03:29:23.289Z,9.045
2022-10-22T03:30:23.316Z,9.04
2022-10-22T03:31:23.352Z,9.074
2022-10-22T03:32:23.393Z,9.074
2022-10-22T03:33:23.423Z,9.069
2022-10-22T03:34:23.461Z,9.083
2022-10-22T03:35:23.494Z,9.083
2022-10-22T03:36:23.531Z,9.069
2022-10-22T03:37:23.571Z,9.026
2022-10-22T03:38:23.599Z,8.997
2022-10-22T03:39:23.625Z,8.997
2022-10-22T03:40:23.652Z,8.92
2022-10-22T03:41:23.687Z,8.939
2022-10-22T03:42:23.716Z,8.939
2022-10-22T03:43:23.751Z,8.958
2022-10-22T03:44:23.780Z,8.944
2022-10-22T03:45:23.876Z,8.944
2022-10-22T03:46:23.850Z,8.915
2022-10-22T03:47:23.878Z,8.915
2022-10-22T03:48:23.915Z,8.915
2022-10-22T03:49:23.945Z,8.929
2022-10-22T03:50:23.976Z,8.915
2022-10-22T03:51:24.009Z,8.9
2022-10-22T03:52:24.048Z,8.886
2022-10-22T03:53:24.077Z,8.886
2022-10-22T03:54:24.116Z,8.886
2022-10-22T03:55:24.150Z,8.886
2022-10-22T03:56:24.185Z,8.886
2022-10-22T03:57:24.214Z,8.886
2022-10-22T03:58:24.245Z,8.886
2022-10-22T03:59:24.275Z,8.881
2022-10-22T04:00:24.311Z,8.896
2022-10-22T04:01:24.427Z,8.944
2022-10-22T04:02:24.373Z,8.939
2022-10-22T04:03:24.411Z,8.953
2022-10-22T04:04:24.447Z,8.944
2022-10-22T04:05:24.482Z,8.881
2022-10-22T04:06:24.512Z,8.852
2022-10-22T04:07:24.551Z,8.838
2022-10-22T04:08:24.587Z,8.838
2022-10-22T04:09:24.619Z,8.838
2022-10-22T04:10:24.654Z,8.838
2022-10-22T04:11:24.677Z,8.794
2022-10-22T04:12:24.709Z,8.794
2022-10-22T04:13:24.740Z,8.794
2022-10-22T04:14:24.779Z,8.78
2022-10-22T04:15:24.809Z,8.78
2022-10-22T04:16:27.400Z,8.78
2022-10-22T04:17:24.872Z,8.823
2022-10-22T04:18:24.897Z,8.838
2022-10-22T04:19:24.936Z,8.852
2022-10-22T04:20:24.971Z,8.867
2022-10-22T04:21:25.000Z,8.881
2022-10-22T04:22:25.034Z,8.896
2022-10-22T04:23:25.066Z,8.896
2022-10-22T04:24:25.104Z,8.91
2022-10-22T04:25:25.155Z,8.91
2022-10-22T04:26:25.167Z,8.896
2022-10-22T04:27:25.204Z,8.896
2022-10-22T04:28:25.236Z,8.896
2022-10-22T04:29:25.269Z,8.896
2022-10-22T04:30:25.301Z,8.91
2022-10-22T04:31:25.330Z,8.896
2022-10-22T04:32:25.372Z,8.881
2022-10-22T04:33:25.407Z,8.867
2022-10-22T04:34:25.445Z,8.838
2022-10-22T04:36:25.511Z,8.819
2022-10-22T04:37:25.543Z,8.823
2022-10-22T04:38:25.581Z,8.814
2022-10-22T04:39:25.613Z,8.857
2022-10-22T04:40:25.643Z,8.871
2022-10-22T04:41:25.677Z,8.871
2022-10-22T04:42:25.707Z,8.885
2022-10-22T04:43:25.735Z,8.9
2022-10-22T04:44:25.774Z,8.9
2022-10-22T04:45:25.808Z,8.871
2022-10-22T04:46:25.839Z,8.837
2022-10-22T04:47:25.879Z,8.837
2022-10-22T04:48:25.916Z,8.852
2022-10-22T04:49:25.952Z,8.852
2022-10-22T04:50:25.984Z,8.852
2022-10-22T04:51:26.016Z,8.852
2022-10-22T04:52:26.040Z,8.866
2022-10-22T04:53:26.074Z,8.866
2022-10-22T04:54:29.017Z,8.813
2022-10-22T04:55:26.185Z,8.808
2022-10-22T04:56:26.175Z,8.794
2022-10-22T04:57:26.207Z,8.78
2022-10-22T04:58:26.233Z,8.746
2022-10-22T04:59:26.259Z,8.746
2022-10-22T05:00:26.286Z,8.746
2022-10-22T05:01:26.403Z,8.76
2022-10-22T05:02:26.343Z,8.76
2022-10-22T05:03:26.380Z,8.76
2022-10-22T05:04:26.411Z,8.746
2022-10-22T05:05:26.453Z,8.746
2022-10-22T05:06:26.493Z,8.683
2022-10-22T05:07:26.518Z,8.669
2022-10-22T05:08:26.550Z,8.669
2022-10-22T05:09:26.583Z,8.669
2022-10-22T05:10:26.620Z,8.626
2022-10-22T05:11:26.644Z,8.612
2022-10-22T05:12:26.675Z,8.597
2022-10-22T05:13:26.709Z,8.612
2022-10-22T05:14:26.751Z,8.612
2022-10-22T05:15:26.787Z,8.597
2022-10-22T05:16:26.815Z,8.583
2022-10-22T05:17:26.839Z,8.578
2022-10-22T05:18:26.866Z,8.525
2022-10-22T05:19:26.903Z,8.568
2022-10-22T05:20:26.935Z,8.53
2022-10-22T05:21:26.964Z,8.515
2022-10-22T05:22:26.992Z,8.515
2022-10-22T05:23:27.023Z,8.501
2022-10-22T05:24:27.053Z,8.53
2022-10-22T05:25:27.087Z,8.496
2022-10-22T05:26:27.124Z,8.467
2022-10-22T05:27:27.154Z,8.453
2022-10-22T05:28:27.177Z,8.467
2022-10-22T05:29:27.297Z,8.482
2022-10-22T05:30:27.253Z,8.51
2022-10-22T05:31:27.283Z,8.525
2022-10-22T05:32:27.319Z,8.539
2022-10-22T05:33:27.358Z,8.539
2022-10-22T05:34:27.480Z,8.525
2022-10-22T05:35:27.410Z,8.51
2022-10-22T05:36:27.444Z,8.496
2022-10-22T05:37:27.471Z,8.467
2022-10-22T05:38:27.500Z,8.472
2022-10-22T05:39:27.532Z,8.458
2022-10-22T05:40:31.066Z,8.443
2022-10-22T05:41:27.592Z,8.472
2022-10-22T05:42:27.621Z,8.453
2022-10-22T05:43:27.667Z,8.453
2022-10-22T05:44:27.680Z,8.438
2022-10-22T05:45:27.714Z,8.4
2022-10-22T05:46:27.748Z,8.395
2022-10-22T05:47:27.775Z,8.395
2022-10-22T05:48:27.886Z,8.366
2022-10-22T05:49:27.836Z,8.366
2022-10-22T05:50:27.870Z,8.352
2022-10-22T05:51:27.901Z,8.347
2022-10-22T05:52:27.927Z,8.332
2022-10-22T05:53:27.969Z,8.347
2022-10-22T05:54:27.986Z,8.361
2022-10-22T05:55:28.016Z,8.361
2022-10-22T05:56:28.060Z,8.361
2022-10-22T05:57:28.086Z,8.376
2022-10-22T05:58:28.121Z,8.376
2022-10-22T05:59:28.155Z,8.405
2022-10-22T06:00:28.191Z,8.419
2022-10-22T06:01:28.227Z,8.476
2022-10-22T06:02:28.289Z,8.481
2022-10-22T06:03:28.290Z,8.495
2022-10-22T06:04:28.318Z,8.523
2022-10-22T06:05:28.345Z,8.537
2022-10-22T06:06:28.380Z,8.551
2022-10-22T06:07:28.405Z,8.523
2022-10-22T06:08:28.437Z,8.48
2022-10-22T06:09:28.524Z,8.452
2022-10-22T06:10:28.568Z,8.437
2022-10-22T06:11:31.130Z,8.418
2022-10-22T06:12:28.547Z,8.433
2022-10-22T06:13:28.586Z,8.418
2022-10-22T06:14:28.620Z,8.418
2022-10-22T06:15:28.656Z,8.418
2022-10-22T06:16:28.695Z,8.462
2022-10-22T06:17:28.731Z,8.433
2022-10-22T06:18:28.792Z,8.433
2022-10-22T06:19:28.801Z,8.452
2022-10-22T06:20:28.828Z,8.424
2022-10-22T06:21:28.860Z,8.409
2022-10-22T06:22:28.901Z,8.409
2022-10-22T06:23:28.933Z,8.443
2022-10-22T06:24:28.966Z,8.443
2022-10-22T06:25:29.002Z,8.457
2022-10-22T06:26:29.037Z,8.472
2022-10-22T06:27:29.071Z,8.486
2022-10-22T06:28:29.106Z,8.515
2022-10-22T06:29:29.140Z,8.529
2022-10-22T06:30:29.177Z,8.543
2022-10-22T06:31:29.201Z,8.558
2022-10-22T06:32:29.232Z,8.558
2022-10-22T06:33:29.257Z,8.572
2022-10-22T06:34:29.290Z,8.586
2022-10-22T06:35:29.324Z,8.62
2022-10-22T06:36:29.437Z,8.634
2022-10-22T06:37:29.393Z,8.634
2022-10-22T06:38:29.420Z,8.72
2022-10-22T06:39:29.444Z,8.701
2022-10-22T06:40:29.479Z,8.72
2022-10-22T06:41:29.782Z,8.72
2022-10-22T06:42:29.538Z,8.72
2022-10-22T06:43:29.565Z,8.692
2022-10-22T06:44:29.590Z,8.697
2022-10-22T06:45:29.621Z,8.683
2022-10-22T06:46:29.645Z,8.707
2022-10-22T06:47:29.670Z,8.707
2022-10-22T06:48:29.702Z,8.707
2022-10-22T06:49:29.734Z,8.707
2022-10-22T06:50:29.764Z,8.707
2022-10-22T06:51:29.786Z,8.755
2022-10-22T06:52:29.825Z,8.769
2022-10-22T06:53:29.848Z,8.798
2022-10-22T06:54:29.881Z,8.798
2022-10-22T06:55:29.912Z,8.842
2022-10-22T06:56:29.943Z,8.842
2022-10-22T06:57:29.971Z,8.842
2022-10-22T06:58:30.006Z,8.861
2022-10-22T06:59:30.042Z,8.861
2022-10-22T07:00:30.137Z,8.875
2022-10-22T07:01:30.213Z,8.933
2022-10-22T07:02:30.146Z,8.967
2022-10-22T07:03:30.173Z,8.967
2022-10-22T07:04:30.207Z,8.991
2022-10-22T07:05:30.239Z,9.029
2022-10-22T07:06:30.273Z,9.044
2022-10-22T07:07:30.314Z,9.063
2022-10-22T07:08:30.344Z,9.082
2022-10-22T07:09:30.369Z,9.063
2022-10-22T07:10:30.858Z,9.077
2022-10-22T07:11:30.431Z,9.077
2022-10-22T07:12:30.465Z,9.077
2022-10-22T07:13:30.500Z,9.092
2022-10-22T07:14:30.528Z,9.14
2022-10-22T07:15:30.560Z,9.155
2022-10-22T07:16:32.451Z,9.155
2022-10-22T07:17:30.711Z,9.189
2022-10-22T07:18:30.659Z,9.232
2022-10-22T07:19:30.697Z,9.246
2022-10-22T07:20:30.715Z,9.246
2022-10-22T07:21:30.759Z,9.28
2022-10-22T07:22:30.776Z,9.328
2022-10-22T07:23:30.809Z,9.357
2022-10-22T07:24:30.840Z,9.371
2022-10-22T07:25:30.870Z,9.386
2022-10-22T07:26:31.198Z,9.391
2022-10-22T07:27:30.925Z,9.477
2022-10-22T07:28:30.955Z,9.492
2022-10-22T07:29:30.988Z,9.492
2022-10-22T07:30:31.022Z,9.521
2022-10-22T07:31:31.055Z,9.492
2022-10-22T07:32:31.088Z,9.492
2022-10-22T07:33:31.129Z,9.531
2022-10-22T07:34:31.175Z,9.55
2022-10-22T07:35:31.203Z,9.555
2022-10-22T07:36:31.241Z,9.584
2022-10-22T07:37:31.277Z,9.584
2022-10-22T07:38:31.296Z,9.589
2022-10-22T07:39:31.340Z,9.574
2022-10-22T07:40:31.371Z,9.651
2022-10-22T07:41:31.399Z,9.637
2022-10-22T07:42:31.434Z,9.652
2022-10-22T07:43:31.469Z,9.637
2022-10-22T07:44:31.507Z,9.637
2022-10-22T07:45:31.544Z,9.642
2022-10-22T07:46:31.572Z,9.608
2022-10-22T07:47:31.599Z,9.68
2022-10-22T07:48:31.633Z,9.7
2022-10-22T07:49:31.670Z,9.733
2022-10-22T07:50:31.779Z,9.758
2022-10-22T07:51:31.730Z,9.758
2022-10-22T07:52:31.761Z,9.777
2022-10-22T07:53:31.787Z,9.791
2022-10-22T07:54:31.814Z,9.777
2022-10-22T07:55:31.844Z,9.796
2022-10-22T07:56:31.877Z,9.815
2022-10-22T07:57:31.910Z,9.796
2022-10-22T07:58:31.944Z,9.796
2022-10-22T07:59:31.978Z,9.796
2022-10-22T08:00:32.004Z,9.811
2022-10-22T08:01:32.085Z,9.83
2022-10-22T08:02:32.071Z,9.844
2022-10-22T08:03:32.106Z,9.883
2022-10-22T08:04:32.144Z,9.902
2022-10-22T08:05:32.170Z,9.902
2022-10-22T08:06:32.204Z,9.902
2022-10-22T08:07:32.230Z,9.917
2022-10-22T08:08:32.336Z,9.936
2022-10-22T08:09:32.289Z,9.974
2022-10-22T08:10:32.323Z,9.96
2022-10-22T08:11:32.360Z,9.96
2022-10-22T08:12:32.385Z,10.02
2022-10-22T08:13:32.420Z,10.01
2022-10-22T08:14:32.444Z,10.01
2022-10-22T08:15:32.493Z,10.04
2022-10-22T08:16:32.509Z,10.02
2022-10-22T08:17:32.545Z,10.02
2022-10-22T08:18:32.568Z,10.07
2022-10-22T08:19:32.595Z,10.07
2022-10-22T08:20:32.653Z,10.08
2022-10-22T08:21:32.662Z,10.1
2022-10-22T08:22:32.690Z,10.11
2022-10-22T08:23:32.716Z,10.15
2022-10-22T08:24:32.750Z,10.18
2022-10-22T08:25:32.786Z,10.15
2022-10-22T08:26:32.815Z,10.15
2022-10-22T08:27:32.844Z,10.17
2022-10-22T08:28:32.868Z,10.17
2022-10-22T08:29:32.890Z,10.12
2022-10-22T08:30:32.915Z,10.17
2022-10-22T08:31:32.951Z,10.18
2022-10-22T08:32:32.989Z,10.23
2022-10-22T08:33:33.017Z,10.22
2022-10-22T08:34:33.047Z,10.23
2022-10-22T08:35:33.076Z,10.25
2022-10-22T08:36:33.108Z,10.26
2022-10-22T08:37:33.134Z,10.28
2022-10-22T08:38:33.161Z,10.27
2022-10-22T08:39:33.197Z,10.33
2022-10-22T08:40:33.231Z,10.35
2022-10-22T08:41:33.264Z,10.36
2022-10-22T08:42:33.301Z,10.44
2022-10-22T08:43:33.332Z,10.44
2022-10-22T08:44:33.363Z,10.41
2022-10-22T08:45:33.388Z,10.38
2022-10-22T08:46:33.418Z,10.43
2022-10-22T08:47:33.454Z,10.4
2022-10-22T08:48:33.489Z,10.41
2022-10-22T08:49:35.129Z,10.32
2022-10-22T08:50:33.553Z,10.29
2022-10-22T08:51:33.591Z,10.26
2022-10-22T08:52:33.629Z,10.23
2022-10-22T08:53:33.658Z,10.25
2022-10-22T08:54:33.681Z,10.2
2022-10-22T08:55:36.611Z,10.16
2022-10-22T08:56:33.753Z,10.13
2022-10-22T08:57:33.785Z,10.07
2022-10-22T08:58:33.813Z,10.06
2022-10-22T08:59:33.844Z,10.03
2022-10-22T09:00:33.872Z,10
2022-10-22T09:01:33.903Z,9.967
2022-10-22T09:02:33.930Z,10.01
2022-10-22T09:03:33.960Z,9.972
2022-10-22T09:04:33.988Z,9.995
2022-10-22T09:05:34.026Z,9.948
2022-10-22T09:06:34.054Z,9.932
2022-10-22T09:07:34.084Z,9.919
2022-10-22T09:08:34.203Z,9.907
2022-10-22T09:09:34.145Z,9.843
2022-10-22T09:10:34.178Z,9.84
2022-10-22T09:11:34.209Z,9.846
2022-10-22T09:12:34.242Z,9.846
2022-10-22T09:13:34.277Z,9.864
2022-10-22T09:14:34.301Z,9.832
2022-10-22T09:15:34.335Z,9.835
2022-10-22T09:16:34.407Z,9.8
2022-10-22T09:17:34.411Z,9.765
2022-10-22T09:18:34.441Z,9.806
2022-10-22T09:19:34.469Z,9.792
2022-10-22T09:20:34.499Z,9.801
2022-10-22T09:21:34.536Z,9.797
2022-10-22T09:23:34.614Z,9.734
2022-10-22T09:24:34.639Z,9.685
2022-10-22T09:25:34.671Z,9.742
2022-10-22T09:26:34.705Z,9.725
2022-10-22T09:27:34.760Z,9.709
2022-10-22T09:28:34.794Z,9.695
2022-10-22T09:29:34.831Z,9.754
2022-10-22T09:30:34.852Z,9.761
2022-10-22T09:31:34.884Z,9.766
2022-10-22T09:32:34.927Z,9.759
2022-10-22T09:33:34.979Z,9.804
2022-10-22T09:34:35.002Z,9.787
2022-10-22T09:35:35.039Z,9.813
2022-10-22T09:36:35.072Z,9.763
2022-10-22T09:37:35.122Z,9.763
2022-10-22T09:38:35.165Z,9.758
2022-10-22T09:39:35.196Z,9.691
2022-10-22T09:40:35.218Z,9.691
2022-10-22T09:41:35.252Z,9.719
2022-10-22T09:42:35.285Z,9.719
2022-10-22T09:43:35.318Z,9.706
2022-10-22T09:44:35.351Z,9.735
2022-10-22T09:45:35.375Z,9.684
2022-10-22T09:46:35.413Z,9.667
2022-10-22T09:47:43.207Z,9.65
2022-10-22T09:48:35.466Z,9.684
2022-10-22T09:49:35.499Z,9.684
2022-10-22T09:50:35.525Z,9.65
2022-10-22T09:51:35.553Z,9.633
2022-10-22T09:52:35.585Z,9.616
2022-10-22T09:53:35.608Z,9.599
2022-10-22T09:54:35.644Z,9.635
2022-10-22T09:55:35.671Z,9.682
2022-10-22T09:56:35.705Z,9.739
2022-10-22T09:57:36.604Z,9.721
2022-10-22T09:58:35.763Z,9.687
2022-10-22T09:59:35.802Z,9.704
2022-10-22T10:00:35.840Z,9.704
2022-10-22T10:01:35.871Z,9.706
2022-10-22T10:02:38.487Z,9.672
2022-10-22T10:03:35.936Z,9.672
2022-10-22T10:04:35.965Z,9.729
2022-10-22T10:05:35.999Z,9.746
2022-10-22T10:06:36.026Z,9.747
2022-10-22T10:07:36.061Z,9.749
2022-10-22T10:08:36.144Z,9.732
2022-10-22T10:09:36.130Z,9.766
2022-10-22T10:10:36.172Z,9.732
2022-10-22T10:11:36.221Z,9.826
2022-10-22T10:12:36.397Z,9.792
2022-10-22T10:13:36.286Z,9.841
2022-10-22T10:14:36.309Z,9.841
2022-10-22T10:15:36.350Z,9.817
2022-10-22T10:16:36.393Z,9.793
2022-10-22T10:17:36.432Z,9.793
2022-10-22T10:18:36.461Z,9.828
2022-10-22T10:19:36.498Z,9.782
2022-10-22T10:20:36.535Z,9.782
2022-10-22T10:21:36.579Z,9.768
2022-10-22T10:22:36.624Z,9.785
2022-10-22T10:23:36.648Z,9.749
2022-10-22T10:24:36.672Z,9.769
2022-10-22T10:25:36.705Z,9.777
2022-10-22T10:26:36.742Z,9.777
2022-10-22T10:27:36.788Z,9.76
2022-10-22T10:28:36.822Z,9.749
2022-10-22T10:30:36.879Z,9.795
2022-10-22T10:31:36.915Z,9.847
2022-10-22T10:32:36.959Z,9.812
2022-10-22T10:33:37.010Z,9.828
2022-10-22T10:34:37.041Z,9.844
2022-10-22T10:35:37.068Z,9.863
2022-10-22T10:36:37.099Z,9.828
2022-10-22T10:37:37.142Z,9.883
2022-10-22T10:38:37.195Z,9.859
2022-10-22T10:39:37.236Z,9.949
2022-10-22T10:40:37.260Z,10.05
2022-10-22T10:41:37.291Z,10.22
2022-10-22T10:42:37.319Z,10.3
2022-10-22T10:43:37.355Z,10.35
2022-10-22T10:44:37.404Z,10.39
2022-10-22T10:45:37.439Z,10.46
2022-10-22T10:46:37.465Z,10.57
2022-10-22T10:47:37.497Z,10.86
2022-10-22T10:48:37.530Z,10.93
2022-10-22T10:49:37.575Z,10.87
2022-10-22T10:50:37.617Z,10.94
2022-10-22T10:51:37.639Z,10.96
2022-10-22T10:52:37.672Z,10.96
2022-10-22T10:53:37.709Z,11.04
2022-10-22T10:55:37.797Z,11.19
2022-10-22T10:56:39.238Z,11.16
2022-10-22T10:57:38.036Z,11.26
2022-10-22T10:58:37.886Z,11.27
2022-10-22T10:59:37.926Z,11.28
2022-10-22T11:00:37.966Z,11.33
2022-10-22T11:01:38.066Z,11.41
2022-10-22T11:02:38.042Z,11.4
2022-10-22T11:03:38.069Z,11.48
2022-10-22T11:04:38.102Z,11.5
2022-10-22T11:05:38.143Z,11.6
2022-10-22T11:06:38.177Z,11.57
2022-10-22T11:07:38.211Z,11.6
2022-10-22T11:08:38.315Z,11.69
2022-10-22T11:09:38.278Z,11.74
2022-10-22T11:10:38.319Z,11.74
2022-10-22T11:11:38.366Z,11.79
2022-10-22T11:12:38.659Z,11.87
2022-10-22T11:13:38.439Z,11.92
2022-10-22T11:14:38.473Z,11.93
2022-10-22T11:15:38.511Z,11.9
2022-10-22T11:16:38.552Z,11.99
2022-10-22T11:17:38.600Z,11.96
2022-10-22T11:18:38.630Z,12
2022-10-22T11:19:50.974Z,12.13
2022-10-22T11:20:38.697Z,12.16
2022-10-22T11:21:38.735Z,12.23
2022-10-22T11:22:42.155Z,12.2
2022-10-22T11:23:38.821Z,12.16
2022-10-22T11:24:38.850Z,12.2
2022-10-22T11:25:38.878Z,12.25
2022-10-22T11:26:38.915Z,12.24
2022-10-22T11:27:39.391Z,12.24
2022-10-22T11:28:39.001Z,12.22
2022-10-22T11:29:39.023Z,12.27
2022-10-22T11:30:39.059Z,12.26
2022-10-22T11:31:39.095Z,12.29
2022-10-22T11:32:39.358Z,12.4
2022-10-22T11:33:39.188Z,12.41
2022-10-22T11:34:39.212Z,12.53
2022-10-22T11:35:39.244Z,12.67
2022-10-22T11:36:39.281Z,12.69
2022-10-22T11:37:39.652Z,12.64
2022-10-22T11:38:39.360Z,12.7
2022-10-22T11:39:39.406Z,12.63
2022-10-22T11:40:39.429Z,12.65
2022-10-22T11:41:39.455Z,12.81
2022-10-22T11:42:39.494Z,12.84
2022-10-22T11:43:39.535Z,12.8
2022-10-22T11:44:39.621Z,12.76
2022-10-22T11:45:39.616Z,12.74
2022-10-22T11:46:39.639Z,12.77
2022-10-22T11:47:39.897Z,12.82
2022-10-22T11:48:39.720Z,12.86
2022-10-22T11:49:39.769Z,12.86
2022-10-22T11:50:39.792Z,12.85
2022-10-22T11:51:39.822Z,12.9
2022-10-22T11:52:39.848Z,12.83
2022-10-22T11:53:39.893Z,12.85
2022-10-22T11:54:39.935Z,12.86
2022-10-22T11:55:39.977Z,12.75
2022-10-22T11:56:40.002Z,12.71
2022-10-22T11:57:40.255Z,12.75
2022-10-22T11:58:40.071Z,12.75
2022-10-22T11:59:40.119Z,12.88
2022-10-22T12:00:40.184Z,12.86
2022-10-22T12:01:40.191Z,12.83
2022-10-22T12:02:40.515Z,12.84
2022-10-22T12:03:40.261Z,12.83
2022-10-22T12:04:40.347Z,12.88
2022-10-22T12:05:40.342Z,12.88
2022-10-22T12:06:40.369Z,12.96
2022-10-22T12:07:40.395Z,12.96
2022-10-22T12:08:40.459Z,12.94
2022-10-22T12:09:40.515Z,12.94
2022-10-22T12:10:40.508Z,12.97
2022-10-22T12:11:40.554Z,12.95
2022-10-22T12:12:40.832Z,12.99
2022-10-22T12:13:40.611Z,12.97
2022-10-22T12:14:40.648Z,12.88
2022-10-22T12:15:40.686Z,12.93
2022-10-22T12:16:56.593Z,12.91
2022-10-22T12:17:40.754Z,12.86
2022-10-22T12:18:40.782Z,12.98
2022-10-22T12:19:40.818Z,12.99
2022-10-22T12:20:40.860Z,13
2022-10-22T12:21:40.903Z,13.02
2022-10-22T12:22:41.311Z,13
2022-10-22T12:23:40.962Z,12.92
2022-10-22T12:24:40.998Z,12.82
2022-10-22T12:25:41.041Z,12.81
2022-10-22T12:26:41.093Z,12.79
2022-10-22T12:27:41.486Z,12.84
2022-10-22T12:28:41.155Z,12.93
2022-10-22T12:29:41.189Z,12.9
2022-10-22T12:30:41.226Z,12.87
2022-10-22T12:31:41.269Z,12.85
2022-10-22T12:32:41.312Z,12.9
2022-10-22T12:33:41.338Z,12.94
2022-10-22T12:34:41.486Z,12.91
2022-10-22T12:35:41.414Z,12.82
2022-10-22T12:36:41.457Z,12.78
2022-10-22T12:37:41.793Z,12.79
2022-10-22T12:38:41.528Z,12.82
2022-10-22T12:39:41.549Z,12.83
2022-10-22T12:40:44.562Z,12.85
2022-10-22T12:41:41.622Z,12.77
2022-10-22T12:42:41.665Z,12.69
2022-10-22T12:43:41.698Z,12.66
2022-10-22T12:44:41.727Z,12.69
2022-10-22T12:45:41.754Z,12.77
2022-10-22T12:46:41.799Z,12.71
2022-10-22T12:47:42.122Z,12.58
2022-10-22T12:48:41.888Z,12.55
2022-10-22T12:49:41.913Z,12.57
2022-10-22T12:50:41.946Z,12.57
2022-10-22T12:51:41.980Z,12.53
2022-10-22T12:52:42.570Z,12.55
2022-10-22T12:53:42.057Z,12.58
2022-10-22T12:54:42.098Z,12.64
2022-10-22T12:55:42.142Z,12.64
2022-10-22T12:56:42.174Z,12.58
2022-10-22T12:57:42.217Z,12.48
2022-10-22T12:58:42.276Z,12.44
2022-10-22T12:59:45.911Z,12.51